Time;durP1;ratioP1;P1;durP2;ratioP2;P2;SDS_P1;SDS_P2;PMS_P1;PMS_P2;Temp;Humidity;BMP_temperature;BMP_pressure;BME280_temperature;BME280_humidity;BME280_pressure;Samples;Min_cycle;Max_cycle;Signal;HPM_P1;HPM_P2
2022/07/24 03:02:05;;;;;;;0.97;0.97;;;23.50;69.80;;;;;;5374085;23;21019;-74
2022/07/24 03:04:32;;;;;;;0.97;0.97;;;23.50;70.20;;;;;;4974364;28;20477;-74
2022/07/24 03:06:59;;;;;;;1.20;1.10;;;23.50;70.10;;;;;;4974308;28;20449;-74
2022/07/24 03:09:25;;;;;;;1.03;0.97;;;23.50;69.90;;;;;;4974299;28;20218;-74
2022/07/24 03:11:52;;;;;;;1.00;1.00;;;23.50;69.70;;;;;;4974160;28;20599;-74
2022/07/24 03:14:19;;;;;;;0.83;0.83;;;23.50;69.80;;;;;;4975619;28;20462;-73
2022/07/24 03:16:45;;;;;;;1.30;1.20;;;23.50;69.70;;;;;;4974163;28;20450;-73
2022/07/24 03:19:13;;;;;;;0.97;0.97;;;23.50;69.80;;;;;;4977614;28;20457;-73
2022/07/24 03:21:40;;;;;;;0.97;0.93;;;23.40;69.70;;;;;;4977617;28;20548;-73
2022/07/24 03:24:07;;;;;;;0.93;0.83;;;23.40;69.70;;;;;;4977710;28;20446;-73
2022/07/24 03:26:34;;;;;;;0.90;0.90;;;23.40;69.80;;;;;;4977422;28;20949;-73
2022/07/24 03:29:00;;;;;;;1.10;1.00;;;23.30;69.70;;;;;;4977334;28;21003;-73
2022/07/24 03:31:27;;;;;;;0.80;0.80;;;23.40;69.50;;;;;;4977534;28;20513;-73
2022/07/24 03:33:53;;;;;;;0.87;0.87;;;23.40;69.40;;;;;;4977568;28;20454;-73
2022/07/24 03:36:22;;;;;;;0.97;0.97;;;23.40;69.30;;;;;;4977534;28;20450;-73
2022/07/24 03:38:48;;;;;;;1.00;1.00;;;23.40;69.10;;;;;;4977150;28;20864;-73
2022/07/24 03:41:15;;;;;;;0.90;0.90;;;23.40;68.90;;;;;;4977286;28;20500;-73
2022/07/24 03:43:42;;;;;;;0.90;0.90;;;23.50;68.80;;;;;;4977397;28;20541;-73
2022/07/24 03:46:09;;;;;;;0.80;0.80;;;23.50;68.80;;;;;;4977338;28;20261;-73
2022/07/24 03:48:36;;;;;;;0.80;0.80;;;23.60;68.80;;;;;;4977305;28;20454;-73
2022/07/24 03:51:02;;;;;;;1.20;1.20;;;23.50;69.10;;;;;;4977081;28;20466;-73
2022/07/24 03:53:30;;;;;;;0.83;0.83;;;23.50;69.00;;;;;;4976938;28;20458;-73
2022/07/24 03:55:57;;;;;;;1.00;1.00;;;23.50;69.10;;;;;;4977277;28;20450;-73
2022/07/24 03:58:24;;;;;;;1.20;1.10;;;23.50;69.20;;;;;;4977156;28;20461;-73
2022/07/24 04:00:50;;;;;;;1.13;1.03;;;23.40;69.10;;;;;;4976855;28;20516;-73
2022/07/24 04:03:17;;;;;;;1.00;1.00;;;23.40;69.30;;;;;;4977888;28;20496;-73
2022/07/24 04:05:43;;;;;;;1.10;1.10;;;23.40;69.40;;;;;;4976979;28;20472;-73
2022/07/24 04:08:10;;;;;;;1.00;1.00;;;23.40;69.40;;;;;;4976944;28;20206;-73
2022/07/24 04:10:38;;;;;;;1.00;1.00;;;23.50;69.30;;;;;;4976521;28;20210;-73
2022/07/24 04:13:05;;;;;;;0.90;0.90;;;23.60;69.20;;;;;;4976848;28;20517;-73
2022/07/24 04:15:31;;;;;;;0.97;0.97;;;23.50;69.20;;;;;;4976831;28;20450;-73
2022/07/24 04:17:58;;;;;;;0.83;0.83;;;23.50;69.40;;;;;;4976433;28;20799;-73
2022/07/24 04:20:25;;;;;;;1.00;1.00;;;23.50;69.60;;;;;;4976569;28;20532;-73
2022/07/24 04:22:51;;;;;;;0.90;0.90;;;23.40;69.60;;;;;;4976679;28;20450;-73
2022/07/24 04:25:18;;;;;;;1.00;1.00;;;23.40;69.80;;;;;;4976670;28;20454;-72
2022/07/24 04:27:47;;;;;;;1.10;0.90;;;23.40;70.00;;;;;;4976281;28;21008;-73
2022/07/24 04:30:15;;;;;;;1.10;1.10;;;23.40;70.00;;;;;;4976214;28;20446;-73
2022/07/24 04:32:41;;;;;;;1.27;1.17;;;23.40;70.20;;;;;;4976436;28;20501;-73
2022/07/24 04:35:08;;;;;;;1.23;1.23;;;23.40;70.10;;;;;;4976451;28;20500;-73
2022/07/24 04:37:35;;;;;;;1.50;1.40;;;23.50;69.90;;;;;;4976447;28;20453;-73
2022/07/24 04:40:02;;;;;;;1.10;1.10;;;23.60;69.90;;;;;;4976292;28;20206;-73
2022/07/24 04:42:28;;;;;;;0.97;0.97;;;23.60;69.80;;;;;;4976265;28;20231;-73
2022/07/24 04:44:56;;;;;;;1.20;1.20;;;23.60;69.70;;;;;;4976273;28;20505;-73
2022/07/24 04:47:23;;;;;;;0.90;0.90;;;23.60;69.70;;;;;;4976232;28;20454;-73
2022/07/24 04:49:50;;;;;;;1.33;1.27;;;23.60;69.90;;;;;;4976197;28;20450;-73
2022/07/24 04:52:16;;;;;;;1.33;1.23;;;23.50;70.00;;;;;;4976092;28;20465;-73
2022/07/24 04:54:43;;;;;;;1.23;1.13;;;23.40;70.20;;;;;;4976110;28;20454;-73
2022/07/24 04:57:10;;;;;;;1.30;1.20;;;23.40;70.00;;;;;;4975743;28;20454;-73
2022/07/24 04:59:36;;;;;;;1.17;1.17;;;23.50;70.10;;;;;;4975727;28;20450;-73
2022/07/24 05:02:04;;;;;;;1.30;1.30;;;23.60;69.90;;;;;;4975409;28;20494;-72
2022/07/24 05:04:34;;;;;;;1.40;1.30;;;23.60;69.90;;;;;;4975922;28;20457;-73
2022/07/24 05:07:00;;;;;;;1.30;1.30;;;23.70;69.90;;;;;;4975904;28;20552;-73
2022/07/24 05:09:27;;;;;;;1.30;1.30;;;23.80;69.80;;;;;;4975782;28;20458;-73
2022/07/24 05:11:54;;;;;;;1.20;1.10;;;23.80;69.90;;;;;;4975767;28;20461;-73
2022/07/24 05:14:21;;;;;;;0.93;0.93;;;23.80;70.10;;;;;;4975744;28;20450;-73
2022/07/24 05:16:48;;;;;;;1.30;1.20;;;23.90;70.00;;;;;;4975695;28;20500;-73
2022/07/24 05:19:16;;;;;;;1.00;1.00;;;24.00;69.60;;;;;;4975677;28;20517;-73
2022/07/24 05:21:43;;;;;;;1.20;1.10;;;24.10;69.50;;;;;;4975179;28;20930;-73
2022/07/24 05:24:09;;;;;;;0.83;0.83;;;24.20;69.60;;;;;;4975586;28;20476;-73
2022/07/24 05:26:36;;;;;;;0.90;0.90;;;24.30;69.50;;;;;;4975479;28;20524;-73
2022/07/24 05:29:05;;;;;;;1.00;1.00;;;24.10;69.20;;;;;;4975473;28;20524;-73
2022/07/24 05:31:32;;;;;;;1.00;1.00;;;24.10;70.10;;;;;;4975400;28;20880;-73
2022/07/24 05:34:01;;;;;;;0.90;0.90;;;24.20;70.00;;;;;;4975325;28;20509;-73
2022/07/24 05:36:30;;;;;;;0.80;0.80;;;24.40;70.00;;;;;;4975289;28;20461;-73
2022/07/24 05:38:57;;;;;;;0.90;0.90;;;24.50;69.50;;;;;;4975299;28;20457;-73
2022/07/24 05:41:23;;;;;;;0.98;0.88;;;24.70;67.30;;;;;;4974502;28;20282;-73
2022/07/24 05:43:50;;;;;;;0.80;0.80;;;25.00;66.60;;;;;;4975203;28;20211;-73
2022/07/24 05:46:17;;;;;;;0.88;0.88;;;25.30;66.40;;;;;;4975163;28;20450;-73
2022/07/24 05:48:43;;;;;;;1.00;0.90;;;25.60;64.80;;;;;;4975132;28;20261;-73
2022/07/24 05:51:10;;;;;;;0.80;0.80;;;25.80;63.90;;;;;;4975061;28;20465;-73
2022/07/24 05:53:38;;;;;;;0.90;0.90;;;26.00;62.90;;;;;;4975051;28;20457;-73
2022/07/24 05:56:05;;;;;;;1.10;1.00;;;26.20;64.10;;;;;;4974674;28;20840;-73
2022/07/24 05:58:33;;;;;;;0.90;0.90;;;26.20;64.90;;;;;;4974970;28;20450;-73
2022/07/24 06:00:59;;;;;;;1.10;1.10;;;26.30;65.70;;;;;;4974442;28;20884;-73
2022/07/24 06:03:26;;;;;;;0.90;0.90;;;26.60;65.00;;;;;;4974894;28;20253;-73
2022/07/24 06:05:53;;;;;;;1.05;1.05;;;26.40;63.60;;;;;;4974861;28;20450;-73
2022/07/24 06:08:19;;;;;;;0.90;0.90;;;26.30;63.60;;;;;;4974844;28;20206;-73
2022/07/24 06:10:47;;;;;;;0.90;0.90;;;26.30;63.90;;;;;;4974710;28;20470;-73
2022/07/24 06:13:14;;;;;;;0.77;0.77;;;26.30;63.60;;;;;;4974785;28;20868;-73
2022/07/24 06:15:40;;;;;;;0.80;0.80;;;26.40;62.80;;;;;;4974460;28;20453;-73
2022/07/24 06:18:07;;;;;;;1.20;1.20;;;26.30;63.10;;;;;;4974735;28;20477;-73
2022/07/24 06:20:34;;;;;;;1.00;0.80;;;26.40;64.30;;;;;;4974491;28;20450;-73
2022/07/24 06:23:00;;;;;;;0.80;0.80;;;26.20;63.70;;;;;;4974666;28;20442;-73
2022/07/24 06:25:27;;;;;;;1.00;1.00;;;26.00;65.00;;;;;;4974617;28;20449;-73
2022/07/24 06:27:55;;;;;;;0.90;0.90;;;26.20;64.40;;;;;;4974601;28;20446;-73
2022/07/24 06:30:25;;;;;;;0.90;0.90;;;26.50;63.30;;;;;;4974514;28;20464;-73
2022/07/24 06:32:54;;;;;;;1.00;1.00;;;26.50;63.70;;;;;;4975352;28;20445;-73
2022/07/24 06:35:21;;;;;;;0.80;0.80;;;26.80;63.40;;;;;;4974535;28;20206;-73
2022/07/24 06:37:48;;;;;;;0.80;0.80;;;27.20;60.70;;;;;;4975051;28;20446;-73
2022/07/24 06:40:16;;;;;;;0.80;0.80;;;27.60;59.40;;;;;;4974211;28;20533;-73
2022/07/24 06:42:43;;;;;;;2.53;1.10;;;27.80;59.80;;;;;;4974331;28;20485;-74
2022/07/24 06:45:12;;;;;;;0.97;0.90;;;28.10;57.00;;;;;;4974438;28;20513;-73
2022/07/24 06:47:38;;;;;;;0.90;0.90;;;28.30;57.30;;;;;;4974451;28;20453;-73
2022/07/24 06:50:06;;;;;;;1.10;0.93;;;28.50;57.30;;;;;;4974979;28;20528;-74
2022/07/24 06:52:32;;;;;;;0.80;0.80;;;28.80;57.00;;;;;;4976498;28;20969;-73
2022/07/24 06:54:59;;;;;;;1.27;0.90;;;28.70;55.00;;;;;;4977968;28;20945;-73
2022/07/24 06:57:26;;;;;;;0.93;0.90;;;28.50;56.20;;;;;;4978237;28;20528;-74
2022/07/24 06:59:53;;;;;;;0.80;0.80;;;28.30;57.30;;;;;;4978245;28;20450;-73
2022/07/24 07:02:22;;;;;;;0.80;0.80;;;28.40;57.10;;;;;;4977614;28;20497;-73
2022/07/24 07:04:49;;;;;;;0.90;0.80;;;28.40;56.80;;;;;;4978106;28;20449;-73
2022/07/24 07:07:16;;;;;;;0.70;0.70;;;28.30;59.30;;;;;;4978091;28;20461;-73
2022/07/24 07:09:43;;;;;;;0.73;0.73;;;27.80;59.90;;;;;;4977694;28;20874;-73
2022/07/24 07:12:11;;;;;;;0.90;0.90;;;27.40;61.30;;;;;;4977951;28;20809;-73
2022/07/24 07:14:38;;;;;;;0.80;0.80;;;27.60;59.70;;;;;;4978003;28;20632;-73
2022/07/24 07:17:04;;;;;;;1.00;0.90;;;27.50;59.40;;;;;;4977873;28;20497;-73
2022/07/24 07:19:32;;;;;;;1.13;1.13;;;27.30;59.40;;;;;;4977875;28;20512;-73
2022/07/24 07:21:59;;;;;;;0.80;0.80;;;27.60;58.80;;;;;;4977379;28;21059;-73
2022/07/24 07:24:26;;;;;;;0.70;0.70;;;27.60;57.80;;;;;;4977736;28;20206;-73
2022/07/24 07:26:52;;;;;;;1.00;0.90;;;27.70;57.90;;;;;;4977412;28;20873;-73
2022/07/24 07:29:19;;;;;;;0.80;0.80;;;28.10;56.10;;;;;;4977669;28;20868;-73
2022/07/24 07:31:45;;;;;;;0.80;0.80;;;28.10;56.90;;;;;;4977579;28;20981;-73
2022/07/24 07:34:12;;;;;;;0.80;0.80;;;28.40;55.60;;;;;;4977521;28;20602;-73
2022/07/24 07:36:40;;;;;;;0.73;0.73;;;28.80;56.00;;;;;;4977562;28;20500;-74
2022/07/24 07:39:07;;;;;;;0.70;0.70;;;29.00;54.60;;;;;;4977187;28;20864;-73
2022/07/24 07:41:33;;;;;;;0.80;0.80;;;28.90;54.00;;;;;;4977365;28;20540;-74
2022/07/24 07:44:01;;;;;;;0.80;0.80;;;28.60;54.20;;;;;;4977416;28;20508;-73
2022/07/24 07:46:27;;;;;;;0.73;0.73;;;28.50;55.90;;;;;;4977357;28;20456;-73
2022/07/24 07:48:54;;;;;;;0.70;0.70;;;28.30;54.50;;;;;;4977352;28;20454;-73
2022/07/24 07:51:21;;;;;;;0.70;0.70;;;28.30;53.50;;;;;;4977192;28;20473;-73
2022/07/24 07:53:49;;;;;;;0.80;0.80;;;28.50;53.40;;;;;;4977213;28;20449;-73
2022/07/24 07:56:16;;;;;;;0.80;0.80;;;28.80;52.40;;;;;;4976835;28;21021;-74
2022/07/24 07:58:43;;;;;;;0.83;0.83;;;29.10;53.90;;;;;;4976843;28;20464;-73
2022/07/24 08:01:09;;;;;;;0.77;0.70;;;29.30;53.50;;;;;;4976797;28;20480;-74
2022/07/24 08:03:36;;;;;;;1.13;0.70;;;29.60;53.40;;;;;;4976030;28;20877;-73
2022/07/24 08:06:03;;;;;;;0.80;0.80;;;29.70;52.30;;;;;;4976766;28;20450;-73
2022/07/24 08:08:30;;;;;;;0.80;0.70;;;29.50;53.10;;;;;;4976955;28;20454;-73
2022/07/24 08:10:58;;;;;;;0.73;0.73;;;29.60;53.30;;;;;;4976856;28;20528;-73
2022/07/24 08:13:26;;;;;;;0.83;0.80;;;29.70;52.60;;;;;;4976890;28;20454;-73
2022/07/24 08:15:52;;;;;;;0.80;0.80;;;29.60;51.10;;;;;;4977675;28;20454;-73
2022/07/24 08:18:19;;;;;;;0.80;0.70;;;29.70;53.20;;;;;;4976798;28;20504;-73
2022/07/24 08:20:45;;;;;;;0.77;0.77;;;30.10;51.60;;;;;;4976374;28;20898;-74
2022/07/24 08:23:12;;;;;;;0.70;0.60;;;30.30;52.40;;;;;;4976357;28;20544;-73
2022/07/24 08:25:39;;;;;;;0.80;0.80;;;30.10;51.40;;;;;;4976348;28;20945;-74
2022/07/24 08:28:07;;;;;;;0.80;0.80;;;29.70;52.40;;;;;;4976306;28;20851;-74
2022/07/24 08:30:34;;;;;;;0.70;0.70;;;29.50;53.00;;;;;;4976165;28;20945;-73
2022/07/24 08:33:00;;;;;;;0.70;0.70;;;29.00;53.70;;;;;;4976545;28;20520;-73
2022/07/24 08:35:27;;;;;;;0.80;0.80;;;28.60;55.70;;;;;;4976207;28;21013;-73
2022/07/24 08:37:53;;;;;;;0.70;0.70;;;28.90;55.20;;;;;;4976507;28;20458;-73
2022/07/24 08:40:20;;;;;;;0.80;0.80;;;29.20;54.30;;;;;;4976415;28;20513;-73
2022/07/24 08:42:47;;;;;;;1.00;1.00;;;29.20;53.20;;;;;;4976325;28;20489;-73
2022/07/24 08:45:15;;;;;;;1.00;1.00;;;28.90;54.30;;;;;;4976303;28;20453;-73
2022/07/24 08:47:42;;;;;;;1.03;1.00;;;29.00;55.50;;;;;;4976289;28;20461;-73
2022/07/24 08:50:10;;;;;;;0.97;0.97;;;29.10;54.20;;;;;;4976234;28;20450;-73
2022/07/24 08:52:39;;;;;;;0.90;0.80;;;29.10;54.20;;;;;;4976102;28;20541;-74
2022/07/24 08:55:06;;;;;;;1.35;0.80;;;29.30;53.80;;;;;;4976152;28;20508;-73
2022/07/24 08:57:33;;;;;;;0.93;0.93;;;29.40;53.30;;;;;;4975808;28;20234;-73
2022/07/24 09:00:00;;;;;;;0.80;0.80;;;29.50;53.60;;;;;;4976034;28;20481;-73
2022/07/24 09:02:28;;;;;;;0.80;0.80;;;29.50;53.70;;;;;;4975498;28;20593;-73
2022/07/24 09:04:59;;;;;;;0.70;0.70;;;29.40;52.30;;;;;;4975672;28;20944;-74
2022/07/24 09:07:29;;;;;;;1.00;0.90;;;29.30;55.10;;;;;;4975949;28;20434;-73
2022/07/24 09:10:01;;;;;;;1.00;0.90;;;29.10;53.60;;;;;;4975829;28;20446;-73
2022/07/24 09:12:32;;;;;;;0.70;0.70;;;29.30;52.90;;;;;;4975762;28;20227;-73
2022/07/24 09:14:59;;;;;;;0.80;0.80;;;29.50;52.10;;;;;;4976291;28;20438;-73
2022/07/24 09:17:28;;;;;;;0.70;0.70;;;29.60;51.50;;;;;;4975650;28;20454;-73
2022/07/24 09:19:56;;;;;;;0.80;0.80;;;29.90;52.50;;;;;;4975657;28;20445;-73
2022/07/24 09:22:35;;;;;;;0.90;0.80;;;30.00;51.10;;;;;;4975485;28;20580;-73
2022/07/24 09:25:09;;;;;;;0.80;0.80;;;30.10;51.70;;;;;;4975871;28;20453;-73
2022/07/24 09:27:37;;;;;;;0.90;0.80;;;30.20;50.60;;;;;;4975572;28;20501;-73
2022/07/24 09:30:06;;;;;;;0.80;0.80;;;30.20;50.10;;;;;;4975479;28;20497;-74
2022/07/24 09:32:36;;;;;;;0.90;0.90;;;30.40;49.80;;;;;;4975404;28;20470;-74
2022/07/24 09:35:04;;;;;;;0.80;0.80;;;30.20;49.80;;;;;;4975424;28;20453;-74
2022/07/24 09:37:31;;;;;;;0.80;0.80;;;30.30;50.70;;;;;;4975056;28;20949;-74
2022/07/24 09:40:08;;;;;;;0.80;0.80;;;30.70;49.00;;;;;;4975277;28;20835;-73
2022/07/24 09:42:38;;;;;;;0.90;0.80;;;30.60;49.00;;;;;;4975228;28;20524;-73
2022/07/24 09:45:10;;;;;;;0.80;0.80;;;30.70;48.20;;;;;;4975560;28;20450;-74
2022/07/24 09:47:39;;;;;;;0.77;0.70;;;31.00;49.00;;;;;;4975228;28;20438;-74
2022/07/24 09:50:14;;;;;;;0.90;0.70;;;31.20;48.30;;;;;;4975164;28;20537;-73
2022/07/24 09:52:42;;;;;;;0.80;0.80;;;31.30;48.20;;;;;;4975118;28;20465;-73
2022/07/24 09:55:21;;;;;;;0.80;0.70;;;31.30;49.40;;;;;;4975026;28;20486;-73
2022/07/24 09:57:48;;;;;;;1.10;1.00;;;30.80;49.60;;;;;;4975021;28;20430;-72
2022/07/24 10:00:16;;;;;;;0.80;0.80;;;30.20;49.60;;;;;;4974910;28;20458;-73
2022/07/24 10:02:46;;;;;;;0.70;0.70;;;29.80;51.50;;;;;;4974457;28;20493;-73
2022/07/24 10:05:14;;;;;;;0.80;0.80;;;30.10;51.30;;;;;;4974660;28;21028;-73
2022/07/24 10:07:42;;;;;;;0.90;0.80;;;30.30;50.80;;;;;;4974922;28;20536;-74
2022/07/24 10:10:10;;;;;;;0.80;0.80;;;30.60;50.80;;;;;;4974826;28;20450;-74
2022/07/24 10:12:37;;;;;;;0.88;0.88;;;31.10;49.30;;;;;;4974842;28;20302;-74
2022/07/24 10:15:06;;;;;;;0.80;0.80;;;31.60;50.00;;;;;;4974877;28;20238;-74
2022/07/24 10:18:03;;;;;;;0.97;0.97;;;32.10;47.40;;;;;;4974948;28;20544;-74
2022/07/24 10:20:39;;;;;;;0.90;0.70;;;32.30;47.20;;;;;;4974675;28;20447;-74
2022/07/24 10:23:06;;;;;;;0.70;0.70;;;32.30;47.30;;;;;;4974640;28;20470;-74
2022/07/24 10:25:46;;;;;;;0.70;0.70;;;32.20;47.50;;;;;;4974611;28;20450;-74
2022/07/24 10:28:15;;;;;;;0.73;0.73;;;32.00;47.40;;;;;;4974486;28;20477;-74
2022/07/24 10:30:42;;;;;;;0.90;0.70;;;31.90;48.60;;;;;;4974566;28;20584;-74
2022/07/24 10:33:10;;;;;;;0.73;0.73;;;31.80;47.80;;;;;;4974569;28;20450;-74
2022/07/24 10:35:39;;;;;;;0.73;0.73;;;31.90;48.40;;;;;;4974609;28;20450;-74
2022/07/24 10:38:13;;;;;;;1.07;1.00;;;32.00;47.70;;;;;;4974270;28;20872;-74
2022/07/24 10:40:45;;;;;;;0.80;0.80;;;32.00;47.80;;;;;;4974489;28;20451;-74
2022/07/24 10:43:22;;;;;;;0.80;0.80;;;32.00;48.40;;;;;;4974452;28;20478;-74
2022/07/24 10:46:13;;;;;;;0.80;0.80;;;32.00;48.10;;;;;;4974516;28;20488;-74
2022/07/24 10:48:41;;;;;;;1.25;1.15;;;32.00;48.60;;;;;;4974509;28;20469;-74
2022/07/24 10:51:13;;;;;;;0.80;0.80;;;32.20;48.50;;;;;;4974070;28;20721;-74
2022/07/24 10:53:48;;;;;;;1.17;0.70;;;32.30;48.40;;;;;;4974464;28;20489;-74
2022/07/24 10:56:21;;;;;;;0.73;0.73;;;32.20;48.90;;;;;;4974339;28;20480;-74
2022/07/24 10:59:01;;;;;;;0.70;0.70;;;32.00;47.40;;;;;;4974443;28;20540;-74
2022/07/24 11:01:42;;;;;;;0.87;0.70;;;32.00;48.70;;;;;;4974106;28;20229;-74
2022/07/24 11:04:30;;;;;;;0.70;0.70;;;32.10;47.70;;;;;;4974286;28;20499;-74
2022/07/24 11:07:01;;;;;;;0.80;0.80;;;32.00;47.40;;;;;;4974332;28;20496;-74
2022/07/24 11:09:29;;;;;;;0.70;0.70;;;31.80;47.00;;;;;;4974342;28;20617;-73
2022/07/24 11:12:06;;;;;;;0.80;0.80;;;31.90;47.80;;;;;;4974228;28;20466;-73
2022/07/24 11:14:50;;;;;;;0.80;0.80;;;32.00;46.90;;;;;;4974298;28;20444;-74
2022/07/24 11:17:39;;;;;;;0.80;0.70;;;32.30;47.90;;;;;;4974190;28;20210;-74
2022/07/24 11:20:10;;;;;;;0.70;0.70;;;32.30;46.80;;;;;;4969911;28;20449;-74
2022/07/24 11:22:42;;;;;;;0.80;0.80;;;32.50;47.90;;;;;;4974081;28;20297;-73
2022/07/24 11:25:13;;;;;;;0.70;0.70;;;32.80;47.30;;;;;;4974115;28;20458;-74
2022/07/24 11:27:48;;;;;;;1.00;0.80;;;32.90;47.00;;;;;;4974206;28;20430;-74
2022/07/24 11:30:16;;;;;;;0.90;0.90;;;32.80;46.80;;;;;;4974009;28;20456;-74
2022/07/24 11:32:43;;;;;;;0.90;0.90;;;32.70;47.10;;;;;;4973723;28;20982;-74
2022/07/24 11:35:12;;;;;;;0.80;0.80;;;32.60;47.40;;;;;;4974043;28;20449;-74
2022/07/24 11:37:43;;;;;;;0.83;0.83;;;32.50;48.30;;;;;;4973991;28;20446;-74
2022/07/24 11:40:15;;;;;;;1.00;0.87;;;32.60;47.80;;;;;;4977126;28;20440;-74
2022/07/24 11:42:42;;;;;;;0.80;0.80;;;32.80;46.30;;;;;;4977442;28;20494;-74
2022/07/24 11:45:10;;;;;;;0.70;0.70;;;33.00;46.10;;;;;;4977444;28;20469;-74
2022/07/24 11:47:36;;;;;;;0.90;0.70;;;33.10;45.90;;;;;;4977439;28;20545;-74
2022/07/24 11:50:06;;;;;;;0.70;0.63;;;33.20;44.90;;;;;;4977362;28;20456;-74
2022/07/24 11:52:36;;;;;;;0.97;0.87;;;33.10;44.40;;;;;;4977253;28;20470;-74
2022/07/24 11:55:06;;;;;;;0.70;0.70;;;32.80;45.70;;;;;;4977317;28;20434;-74
2022/07/24 11:57:36;;;;;;;0.93;0.80;;;32.70;45.50;;;;;;4977524;28;20507;-74
2022/07/24 12:00:05;;;;;;;0.80;0.80;;;32.80;45.20;;;;;;4977237;28;20253;-74
2022/07/24 12:02:32;;;;;;;0.80;0.80;;;32.80;44.90;;;;;;4976707;28;20638;-74
2022/07/24 12:04:59;;;;;;;0.70;0.70;;;32.70;44.60;;;;;;4976760;28;20880;-74
2022/07/24 12:07:27;;;;;;;0.70;0.70;;;32.30;45.50;;;;;;4976844;28;20454;-74
2022/07/24 12:09:57;;;;;;;0.70;0.60;;;32.20;44.90;;;;;;4977023;28;20458;-74
2022/07/24 12:12:27;;;;;;;0.70;0.70;;;32.20;45.30;;;;;;4976635;28;20985;-74
2022/07/24 12:15:01;;;;;;;0.70;0.70;;;32.30;46.00;;;;;;4977048;28;20453;-74
2022/07/24 12:17:28;;;;;;;0.70;0.70;;;32.50;46.90;;;;;;4976999;28;20472;-74
2022/07/24 12:19:57;;;;;;;0.90;0.90;;;32.50;45.00;;;;;;4976899;28;20505;-74
2022/07/24 12:22:26;;;;;;;0.75;0.75;;;32.00;45.40;;;;;;4976823;28;20469;-73
2022/07/24 12:24:55;;;;;;;0.90;0.90;;;32.10;45.70;;;;;;4976763;28;20206;-74
2022/07/24 12:27:42;;;;;;;0.80;0.80;;;32.40;45.50;;;;;;4977235;28;20466;-74
2022/07/24 12:30:21;;;;;;;0.80;0.80;;;32.10;45.20;;;;;;4976695;28;20450;-74
2022/07/24 12:32:56;;;;;;;0.80;0.80;;;32.10;44.50;;;;;;4976697;28;20520;-74
2022/07/24 12:35:23;;;;;;;0.70;0.70;;;32.00;44.50;;;;;;4976279;28;20985;-74
2022/07/24 12:37:50;;;;;;;0.70;0.70;;;32.00;45.20;;;;;;4976536;28;20454;-74
2022/07/24 12:40:25;;;;;;;0.70;0.70;;;32.20;46.30;;;;;;4976490;28;20501;-74
2022/07/24 12:42:57;;;;;;;0.70;0.70;;;32.60;45.20;;;;;;4976382;28;20470;-74
2022/07/24 12:45:24;;;;;;;0.70;0.70;;;33.00;44.40;;;;;;4976534;28;20430;-74
2022/07/24 12:48:09;;;;;;;0.70;0.70;;;32.90;43.30;;;;;;4976439;28;20532;-74
2022/07/24 12:50:35;;;;;;;0.70;0.70;;;33.10;43.40;;;;;;4976062;28;20534;-73
2022/07/24 12:53:05;;;;;;;0.70;0.70;;;33.40;43.80;;;;;;4976193;28;20450;-74
2022/07/24 12:55:33;;;;;;;0.70;0.70;;;33.70;43.10;;;;;;4976111;28;20445;-74
2022/07/24 12:58:01;;;;;;;1.83;0.70;;;34.10;42.70;;;;;;4976072;28;20266;-74
2022/07/24 13:00:28;;;;;;;0.87;0.87;;;34.00;41.20;;;;;;4975691;28;20446;-74
2022/07/24 13:02:55;;;;;;;1.10;1.00;;;34.00;42.00;;;;;;4975675;28;21055;-74
2022/07/24 13:05:36;;;;;;;0.70;0.70;;;34.20;41.80;;;;;;4975643;28;20941;-74
2022/07/24 13:08:03;;;;;;;0.70;0.60;;;34.20;42.30;;;;;;4975973;28;20430;-74
2022/07/24 13:10:30;;;;;;;0.77;0.77;;;34.10;40.60;;;;;;4975816;28;20449;-74
2022/07/24 13:12:58;;;;;;;0.70;0.70;;;34.10;41.00;;;;;;4975987;28;20532;-74
2022/07/24 13:15:25;;;;;;;0.80;0.80;;;34.50;41.50;;;;;;4975824;28;20454;-74
2022/07/24 13:17:52;;;;;;;0.70;0.70;;;34.10;40.60;;;;;;4975787;28;20470;-74
2022/07/24 13:20:18;;;;;;;0.70;0.70;;;34.10;39.90;;;;;;4975768;28;20837;-74
2022/07/24 13:22:45;;;;;;;0.70;0.70;;;34.30;39.40;;;;;;4975480;28;20470;-74
2022/07/24 13:25:12;;;;;;;0.70;0.70;;;34.50;40.60;;;;;;4975630;28;20449;-74
2022/07/24 13:27:38;;;;;;;0.80;0.80;;;34.30;42.10;;;;;;4975619;28;20446;-73
2022/07/24 13:30:07;;;;;;;0.70;0.70;;;33.90;42.20;;;;;;4975481;28;20450;-74
2022/07/24 13:32:34;;;;;;;0.83;0.83;;;33.90;41.80;;;;;;4975129;28;20524;-74
2022/07/24 13:35:01;;;;;;;0.80;0.80;;;34.00;41.70;;;;;;4975193;28;20480;-74
2022/07/24 13:37:27;;;;;;;0.90;0.80;;;33.70;41.70;;;;;;4975459;28;20449;-74
2022/07/24 13:39:54;;;;;;;0.80;0.73;;;33.50;41.50;;;;;;4975267;28;21011;-74
2022/07/24 13:42:21;;;;;;;0.70;0.70;;;33.70;42.30;;;;;;4975200;28;20499;-74
2022/07/24 13:44:47;;;;;;;0.80;0.73;;;33.90;41.00;;;;;;4974955;28;21001;-74
2022/07/24 13:47:15;;;;;;;0.70;0.70;;;33.40;40.90;;;;;;4975298;28;20504;-74
2022/07/24 13:49:42;;;;;;;0.80;0.80;;;33.60;39.60;;;;;;4975300;28;20501;-74
2022/07/24 13:52:09;;;;;;;0.70;0.60;;;33.70;40.00;;;;;;4975096;28;20470;-74
2022/07/24 13:54:36;;;;;;;0.80;0.80;;;33.60;39.80;;;;;;4975160;28;20472;-74
2022/07/24 13:57:04;;;;;;;0.73;0.73;;;33.10;42.00;;;;;;4975161;28;20454;-74
2022/07/24 13:59:30;;;;;;;0.80;0.70;;;33.30;41.30;;;;;;4975077;28;20485;-74
2022/07/24 14:01:57;;;;;;;0.77;0.73;;;33.40;41.80;;;;;;4974294;28;21033;-74
2022/07/24 14:04:25;;;;;;;0.80;0.80;;;33.50;41.70;;;;;;4974711;28;20618;-74
2022/07/24 14:06:52;;;;;;;0.70;0.60;;;33.70;41.00;;;;;;4974938;28;20499;-74
2022/07/24 14:09:19;;;;;;;0.70;0.65;;;33.80;42.00;;;;;;4974887;28;20449;-74
2022/07/24 14:11:46;;;;;;;0.70;0.60;;;33.90;40.90;;;;;;4974864;28;20237;-74
2022/07/24 14:14:12;;;;;;;0.70;0.70;;;34.00;41.00;;;;;;4974875;28;20493;-74
2022/07/24 14:16:39;;;;;;;0.70;0.70;;;33.60;41.00;;;;;;4974793;28;20450;-74
2022/07/24 14:19:06;;;;;;;0.60;0.60;;;33.70;40.80;;;;;;4974583;28;20953;-74
2022/07/24 14:21:34;;;;;;;0.70;0.70;;;33.60;39.90;;;;;;4974740;28;20469;-74
2022/07/24 14:24:01;;;;;;;0.70;0.60;;;33.70;40.40;;;;;;4974653;28;20488;-74
2022/07/24 14:26:28;;;;;;;1.13;0.70;;;33.80;40.20;;;;;;4974686;28;20442;-74
2022/07/24 14:28:54;;;;;;;0.70;0.70;;;33.70;40.20;;;;;;4974529;28;20454;-74
2022/07/24 14:31:21;;;;;;;0.70;0.70;;;34.00;40.50;;;;;;4974596;28;20466;-74
2022/07/24 14:33:48;;;;;;;0.90;0.70;;;34.30;40.60;;;;;;4974363;28;20942;-74
2022/07/24 14:36:14;;;;;;;0.80;0.80;;;34.40;38.00;;;;;;4974439;28;20996;-74
2022/07/24 14:38:42;;;;;;;0.80;0.80;;;34.30;38.90;;;;;;4974677;28;20449;-74
2022/07/24 14:41:09;;;;;;;0.77;0.77;;;34.60;39.70;;;;;;4974420;28;20524;-74
2022/07/24 14:43:35;;;;;;;0.70;0.70;;;34.80;39.60;;;;;;4974499;28;20892;-74
2022/07/24 14:46:03;;;;;;;0.70;0.70;;;34.80;39.00;;;;;;4974230;28;20461;-74
2022/07/24 14:48:29;;;;;;;0.70;0.70;;;35.10;40.00;;;;;;4974340;28;20997;-74
2022/07/24 14:50:56;;;;;;;0.80;0.80;;;35.30;40.50;;;;;;4974215;28;20473;-74
2022/07/24 14:53:23;;;;;;;0.90;0.70;;;35.50;39.70;;;;;;4974430;28;20484;-74
2022/07/24 14:55:51;;;;;;;0.80;0.70;;;35.60;40.80;;;;;;4974394;28;20449;-74
2022/07/24 14:58:17;;;;;;;0.80;0.80;;;35.60;40.00;;;;;;4974237;28;20938;-74
2022/07/24 15:00:44;;;;;;;0.80;0.80;;;35.70;40.20;;;;;;4973922;28;20987;-74
2022/07/24 15:03:11;;;;;;;0.70;0.70;;;35.30;39.80;;;;;;4974311;28;20433;-74
2022/07/24 15:05:37;;;;;;;0.70;0.70;;;34.90;40.50;;;;;;4974307;28;20496;-73
2022/07/24 15:08:04;;;;;;;0.80;0.80;;;34.20;40.90;;;;;;4974333;28;20461;-74
2022/07/24 15:10:31;;;;;;;0.73;0.73;;;34.30;41.40;;;;;;4974159;28;20458;-74
2022/07/24 15:12:59;;;;;;;0.70;0.70;;;34.60;40.80;;;;;;4974372;28;20449;-73
2022/07/24 15:15:26;;;;;;;0.80;0.80;;;34.10;42.10;;;;;;4979422;28;20453;-75
2022/07/24 15:17:52;;;;;;;0.70;0.70;;;34.30;41.20;;;;;;4977946;28;20454;-75
2022/07/24 15:20:19;;;;;;;0.73;0.73;;;34.20;41.40;;;;;;4977536;28;20876;-74
2022/07/24 15:22:45;;;;;;;0.70;0.70;;;34.30;41.80;;;;;;4977468;28;20981;-75
2022/07/24 15:25:12;;;;;;;0.70;0.70;;;34.40;41.30;;;;;;4977416;28;20532;-75
2022/07/24 15:27:39;;;;;;;0.77;0.77;;;34.60;40.40;;;;;;4977709;28;20445;-75
2022/07/24 15:30:08;;;;;;;0.80;0.80;;;34.70;39.80;;;;;;4977337;28;20450;-75
2022/07/24 15:32:35;;;;;;;1.10;0.80;;;34.90;40.50;;;;;;4977637;28;20544;-75
2022/07/24 15:35:02;;;;;;;0.60;0.60;;;35.00;39.90;;;;;;4977583;28;20496;-75
2022/07/24 15:37:29;;;;;;;0.70;0.70;;;34.70;40.40;;;;;;4977564;28;20457;-75
2022/07/24 15:39:56;;;;;;;0.80;0.70;;;34.80;40.60;;;;;;4977487;28;20441;-75
2022/07/24 15:42:22;;;;;;;0.70;0.67;;;34.80;40.00;;;;;;4977406;28;20281;-75
2022/07/24 15:44:49;;;;;;;1.00;0.80;;;34.90;40.20;;;;;;4977349;28;20512;-75
2022/07/24 15:47:17;;;;;;;0.80;0.80;;;35.00;40.30;;;;;;4977089;28;20945;-75
2022/07/24 15:49:44;;;;;;;0.70;0.70;;;35.00;39.50;;;;;;4977398;28;20454;-74
2022/07/24 15:52:11;;;;;;;0.80;0.80;;;34.10;39.60;;;;;;4977197;28;20903;-75
2022/07/24 15:54:37;;;;;;;0.70;0.70;;;33.30;41.20;;;;;;4977304;28;20865;-75